sensor_id;sensor_type;location;lat;lon;timestamp;pressure;altitude;pressure_sealevel;temperature;humidity
60583;BME280;46415;47.536;19.066;2023-01-30T00:01:00;101049.56;;;-3.86;100.00
60583;BME280;46415;47.536;19.066;2023-01-30T00:04:04;101035.81;;;-3.95;100.00
60583;BME280;46415;47.536;19.066;2023-01-30T00:07:07;101028.78;;;-4.05;100.00
60583;BME280;46415;47.536;19.066;2023-01-30T00:10:10;101032.22;;;-4.03;100.00
60583;BME280;46415;47.536;19.066;2023-01-30T00:13:16;101032.31;;;-3.99;100.00
60583;BME280;46415;47.536;19.066;2023-01-30T00:16:19;101032.88;;;-3.78;100.00
60583;BME280;46415;47.536;19.066;2023-01-30T00:19:21;101027.00;;;-3.75;100.00
60583;BME280;46415;47.536;19.066;2023-01-30T00:22:24;101020.37;;;-3.70;100.00
60583;BME280;46415;47.536;19.066;2023-01-30T00:25:27;101031.88;;;-3.48;100.00
60583;BME280;46415;47.536;19.066;2023-01-30T00:28:31;101021.78;;;-3.45;100.00
60583;BME280;46415;47.536;19.066;2023-01-30T00:31:33;101019.87;;;-3.55;100.00
60583;BME280;46415;47.536;19.066;2023-01-30T00:34:36;101017.47;;;-3.49;100.00
60583;BME280;46415;47.536;19.066;2023-01-30T00:37:39;101024.47;;;-3.41;100.00
60583;BME280;46415;47.536;19.066;2023-01-30T00:40:43;101014.31;;;-3.41;100.00
60583;BME280;46415;47.536;19.066;2023-01-30T00:43:45;101012.87;;;-3.30;100.00
60583;BME280;46415;47.536;19.066;2023-01-30T00:47:07;101018.44;;;-3.44;100.00
60583;BME280;46415;47.536;19.066;2023-01-30T00:50:10;101013.84;;;-3.60;100.00
60583;BME280;46415;47.536;19.066;2023-01-30T00:53:14;101014.75;;;-3.58;100.00
60583;BME280;46415;47.536;19.066;2023-01-30T00:56:17;101014.09;;;-3.50;100.00
60583;BME280;46415;47.536;19.066;2023-01-30T00:59:20;101005.19;;;-3.68;100.00
60583;BME280;46415;47.536;19.066;2023-01-30T01:02:23;100992.66;;;-3.62;100.00
60583;BME280;46415;47.536;19.066;2023-01-30T01:05:27;100997.50;;;-3.72;100.00
60583;BME280;46415;47.536;19.066;2023-01-30T01:08:30;100992.44;;;-3.72;100.00
60583;BME280;46415;47.536;19.066;2023-01-30T01:11:33;100991.62;;;-3.71;100.00
60583;BME280;46415;47.536;19.066;2023-01-30T01:14:36;100991.22;;;-3.51;100.00
60583;BME280;46415;47.536;19.066;2023-01-30T01:17:40;100986.50;;;-3.72;100.00
60583;BME280;46415;47.536;19.066;2023-01-30T01:20:45;100988.78;;;-3.83;100.00
60583;BME280;46415;47.536;19.066;2023-01-30T01:23:53;100986.94;;;-3.90;100.00
60583;BME280;46415;47.536;19.066;2023-01-30T01:26:57;100979.09;;;-3.99;100.00
60583;BME280;46415;47.536;19.066;2023-01-30T01:30:00;100975.97;;;-3.89;100.00
60583;BME280;46415;47.536;19.066;2023-01-30T01:33:04;100978.03;;;-3.73;100.00
60583;BME280;46415;47.536;19.066;2023-01-30T01:36:07;100970.56;;;-3.66;100.00
60583;BME280;46415;47.536;19.066;2023-01-30T01:39:10;100971.22;;;-3.75;100.00
60583;BME280;46415;47.536;19.066;2023-01-30T01:42:13;100968.66;;;-3.77;100.00
60583;BME280;46415;47.536;19.066;2023-01-30T01:45:19;100962.00;;;-3.72;100.00
60583;BME280;46415;47.536;19.066;2023-01-30T01:48:26;100956.78;;;-3.78;100.00
60583;BME280;46415;47.536;19.066;2023-01-30T01:51:34;100955.78;;;-3.84;100.00
60583;BME280;46415;47.536;19.066;2023-01-30T01:54:58;100945.31;;;-3.99;100.00
60583;BME280;46415;47.536;19.066;2023-01-30T01:58:13;100936.38;;;-3.84;100.00
60583;BME280;46415;47.536;19.066;2023-01-30T02:01:18;100932.69;;;-3.96;100.00
60583;BME280;46415;47.536;19.066;2023-01-30T02:04:21;100928.87;;;-4.14;100.00
60583;BME280;46415;47.536;19.066;2023-01-30T02:11:24;100908.63;;;-4.14;100.00
60583;BME280;46415;47.536;19.066;2023-01-30T02:14:30;100910.84;;;-4.26;100.00
60583;BME280;46415;47.536;19.066;2023-01-30T02:17:36;100907.41;;;-4.28;100.00
60583;BME280;46415;47.536;19.066;2023-01-30T02:20:55;100901.63;;;-4.22;100.00
60583;BME280;46415;47.536;19.066;2023-01-30T02:27:37;100896.00;;;-4.11;100.00
60583;BME280;46415;47.536;19.066;2023-01-30T02:41:26;100876.59;;;-4.10;100.00
60583;BME280;46415;47.536;19.066;2023-01-30T02:44:17;100873.91;;;-4.16;100.00
60583;BME280;46415;47.536;19.066;2023-01-30T02:47:34;100856.94;;;-4.20;100.00
60583;BME280;46415;47.536;19.066;2023-01-30T02:50:49;100863.78;;;-4.16;100.00
60583;BME280;46415;47.536;19.066;2023-01-30T02:53:55;100842.19;;;-3.99;100.00
60583;BME280;46415;47.536;19.066;2023-01-30T02:56:59;100848.94;;;-4.01;100.00
60583;BME280;46415;47.536;19.066;2023-01-30T03:00:03;100842.91;;;-4.06;100.00
60583;BME280;46415;47.536;19.066;2023-01-30T03:13:04;100836.03;;;-4.10;100.00
60583;BME280;46415;47.536;19.066;2023-01-30T03:16:43;100835.91;;;-4.16;100.00
60583;BME280;46415;47.536;19.066;2023-01-30T03:19:46;100836.03;;;-4.12;100.00
60583;BME280;46415;47.536;19.066;2023-01-30T03:22:52;100829.75;;;-3.90;100.00
60583;BME280;46415;47.536;19.066;2023-01-30T03:25:55;100822.00;;;-3.96;100.00
60583;BME280;46415;47.536;19.066;2023-01-30T03:28:59;100826.13;;;-4.01;100.00
60583;BME280;46415;47.536;19.066;2023-01-30T03:32:04;100825.31;;;-3.98;100.00
60583;BME280;46415;47.536;19.066;2023-01-30T03:35:08;100821.25;;;-3.92;100.00
60583;BME280;46415;47.536;19.066;2023-01-30T03:38:10;100816.25;;;-3.89;100.00
60583;BME280;46415;47.536;19.066;2023-01-30T03:41:14;100819.47;;;-3.96;100.00
60583;BME280;46415;47.536;19.066;2023-01-30T03:44:16;100815.16;;;-4.00;100.00
60583;BME280;46415;47.536;19.066;2023-01-30T03:47:20;100805.63;;;-4.10;100.00
60583;BME280;46415;47.536;19.066;2023-01-30T03:50:23;100814.72;;;-4.20;100.00
60583;BME280;46415;47.536;19.066;2023-01-30T03:53:26;100815.75;;;-4.10;100.00
60583;BME280;46415;47.536;19.066;2023-01-30T03:56:29;100817.28;;;-4.18;100.00
60583;BME280;46415;47.536;19.066;2023-01-30T03:59:32;100803.66;;;-4.23;100.00
60583;BME280;46415;47.536;19.066;2023-01-30T04:02:35;100808.59;;;-4.28;100.00
60583;BME280;46415;47.536;19.066;2023-01-30T04:05:42;100810.22;;;-4.31;100.00
60583;BME280;46415;47.536;19.066;2023-01-30T04:08:45;100811.78;;;-4.36;100.00
60583;BME280;46415;47.536;19.066;2023-01-30T04:11:49;100804.06;;;-4.42;100.00
60583;BME280;46415;47.536;19.066;2023-01-30T04:14:52;100795.50;;;-4.47;100.00
60583;BME280;46415;47.536;19.066;2023-01-30T04:17:56;100792.69;;;-4.58;100.00
60583;BME280;46415;47.536;19.066;2023-01-30T04:20:59;100794.25;;;-4.63;100.00
60583;BME280;46415;47.536;19.066;2023-01-30T04:24:03;100791.16;;;-4.52;100.00
60583;BME280;46415;47.536;19.066;2023-01-30T04:27:06;100782.31;;;-4.69;100.00
60583;BME280;46415;47.536;19.066;2023-01-30T04:30:13;100784.69;;;-4.75;100.00
60583;BME280;46415;47.536;19.066;2023-01-30T04:33:16;100776.06;;;-4.83;100.00
60583;BME280;46415;47.536;19.066;2023-01-30T04:36:18;100780.22;;;-4.85;100.00
60583;BME280;46415;47.536;19.066;2023-01-30T04:39:21;100773.38;;;-4.89;100.00
60583;BME280;46415;47.536;19.066;2023-01-30T04:42:25;100761.41;;;-4.96;100.00
60583;BME280;46415;47.536;19.066;2023-01-30T04:45:30;100763.03;;;-4.98;100.00
60583;BME280;46415;47.536;19.066;2023-01-30T04:48:33;100752.91;;;-4.98;100.00
60583;BME280;46415;47.536;19.066;2023-01-30T04:51:36;100754.63;;;-4.97;100.00
60583;BME280;46415;47.536;19.066;2023-01-30T04:54:39;100750.47;;;-4.95;100.00
60583;BME280;46415;47.536;19.066;2023-01-30T04:57:41;100754.53;;;-5.00;100.00
60583;BME280;46415;47.536;19.066;2023-01-30T05:00:45;100751.03;;;-5.05;100.00
60583;BME280;46415;47.536;19.066;2023-01-30T05:03:51;100746.75;;;-5.08;100.00
60583;BME280;46415;47.536;19.066;2023-01-30T05:06:54;100745.09;;;-5.07;100.00
60583;BME280;46415;47.536;19.066;2023-01-30T05:09:57;100745.25;;;-5.01;100.00
60583;BME280;46415;47.536;19.066;2023-01-30T05:13:04;100738.41;;;-5.04;100.00
60583;BME280;46415;47.536;19.066;2023-01-30T05:16:07;100736.56;;;-5.11;100.00
60583;BME280;46415;47.536;19.066;2023-01-30T05:19:11;100738.00;;;-5.20;100.00
60583;BME280;46415;47.536;19.066;2023-01-30T05:22:15;100742.09;;;-5.24;100.00
60583;BME280;46415;47.536;19.066;2023-01-30T05:25:18;100742.06;;;-5.27;100.00
60583;BME280;46415;47.536;19.066;2023-01-30T05:28:21;100735.31;;;-5.26;100.00
60583;BME280;46415;47.536;19.066;2023-01-30T05:31:24;100739.50;;;-5.27;100.00
60583;BME280;46415;47.536;19.066;2023-01-30T05:34:27;100740.53;;;-5.20;100.00
60583;BME280;46415;47.536;19.066;2023-01-30T05:37:30;100723.72;;;-5.18;100.00
60583;BME280;46415;47.536;19.066;2023-01-30T05:40:33;100724.59;;;-5.16;100.00
60583;BME280;46415;47.536;19.066;2023-01-30T05:43:35;100727.94;;;-5.19;100.00
60583;BME280;46415;47.536;19.066;2023-01-30T05:46:38;100726.97;;;-5.22;100.00
60583;BME280;46415;47.536;19.066;2023-01-30T05:49:41;100718.69;;;-5.18;100.00
60583;BME280;46415;47.536;19.066;2023-01-30T05:52:44;100723.62;;;-5.21;100.00
60583;BME280;46415;47.536;19.066;2023-01-30T05:55:54;100718.53;;;-5.24;100.00
60583;BME280;46415;47.536;19.066;2023-01-30T05:58:58;100730.41;;;-5.20;100.00
60583;BME280;46415;47.536;19.066;2023-01-30T06:02:01;100720.19;;;-5.23;100.00
60583;BME280;46415;47.536;19.066;2023-01-30T06:05:04;100727.06;;;-5.19;100.00
60583;BME280;46415;47.536;19.066;2023-01-30T06:08:07;100733.91;;;-5.15;100.00
60583;BME280;46415;47.536;19.066;2023-01-30T06:11:15;100734.94;;;-5.09;100.00
60583;BME280;46415;47.536;19.066;2023-01-30T06:14:18;100713.81;;;-5.09;100.00
60583;BME280;46415;47.536;19.066;2023-01-30T06:17:21;100739.22;;;-5.05;100.00
60583;BME280;46415;47.536;19.066;2023-01-30T06:20:23;100724.09;;;-5.03;100.00
60583;BME280;46415;47.536;19.066;2023-01-30T06:23:26;100723.28;;;-5.02;100.00
60583;BME280;46415;47.536;19.066;2023-01-30T06:26:29;100725.00;;;-5.01;100.00
60583;BME280;46415;47.536;19.066;2023-01-30T06:29:32;100724.47;;;-4.88;100.00
60583;BME280;46415;47.536;19.066;2023-01-30T06:32:35;100736.53;;;-4.78;100.00
60583;BME280;46415;47.536;19.066;2023-01-30T06:35:39;100728.37;;;-4.66;100.00
60583;BME280;46415;47.536;19.066;2023-01-30T06:38:41;100723.62;;;-4.51;100.00
60583;BME280;46415;47.536;19.066;2023-01-30T06:41:44;100716.31;;;-4.39;100.00
60583;BME280;46415;47.536;19.066;2023-01-30T06:44:47;100709.06;;;-4.24;100.00
60583;BME280;46415;47.536;19.066;2023-01-30T06:47:51;100714.53;;;-4.04;100.00
60583;BME280;46415;47.536;19.066;2023-01-30T06:50:54;100703.16;;;-3.82;100.00
60583;BME280;46415;47.536;19.066;2023-01-30T06:53:57;100709.59;;;-3.54;100.00
60583;BME280;46415;47.536;19.066;2023-01-30T06:57:00;100707.53;;;-3.28;100.00
60583;BME280;46415;47.536;19.066;2023-01-30T07:00:05;100705.19;;;-3.16;100.00
60583;BME280;46415;47.536;19.066;2023-01-30T07:03:13;100714.03;;;-2.95;100.00
60583;BME280;46415;47.536;19.066;2023-01-30T07:06:16;100706.72;;;-2.73;100.00
60583;BME280;46415;47.536;19.066;2023-01-30T07:09:19;100693.59;;;-2.47;100.00
60583;BME280;46415;47.536;19.066;2023-01-30T07:12:22;100702.22;;;-2.35;100.00
60583;BME280;46415;47.536;19.066;2023-01-30T07:15:26;100699.00;;;-2.22;100.00
60583;BME280;46415;47.536;19.066;2023-01-30T07:18:29;100698.37;;;-2.04;100.00
60583;BME280;46415;47.536;19.066;2023-01-30T07:21:31;100698.31;;;-2.08;100.00
60583;BME280;46415;47.536;19.066;2023-01-30T07:24:35;100695.06;;;-1.99;100.00
60583;BME280;46415;47.536;19.066;2023-01-30T07:27:37;100689.28;;;-1.84;100.00
60583;BME280;46415;47.536;19.066;2023-01-30T07:30:40;100686.81;;;-1.78;100.00
60583;BME280;46415;47.536;19.066;2023-01-30T07:33:43;100685.25;;;-1.69;100.00
60583;BME280;46415;47.536;19.066;2023-01-30T07:36:46;100690.44;;;-1.55;100.00
60583;BME280;46415;47.536;19.066;2023-01-30T07:39:49;100687.16;;;-1.49;100.00
60583;BME280;46415;47.536;19.066;2023-01-30T07:43:00;100687.28;;;-1.34;100.00
60583;BME280;46415;47.536;19.066;2023-01-30T07:46:04;100689.06;;;-1.24;100.00
60583;BME280;46415;47.536;19.066;2023-01-30T07:49:08;100684.81;;;-1.25;100.00
60583;BME280;46415;47.536;19.066;2023-01-30T07:52:10;100673.03;;;-1.14;100.00
60583;BME280;46415;47.536;19.066;2023-01-30T07:55:13;100669.69;;;-1.05;100.00
60583;BME280;46415;47.536;19.066;2023-01-30T07:58:16;100675.66;;;-1.05;100.00
60583;BME280;46415;47.536;19.066;2023-01-30T08:01:19;100677.47;;;-0.90;100.00
60583;BME280;46415;47.536;19.066;2023-01-30T08:04:23;100675.75;;;-0.96;100.00
60583;BME280;46415;47.536;19.066;2023-01-30T08:07:26;100677.37;;;-0.99;100.00
60583;BME280;46415;47.536;19.066;2023-01-30T08:10:29;100671.59;;;-0.82;100.00
60583;BME280;46415;47.536;19.066;2023-01-30T08:13:31;100665.62;;;-0.85;100.00
60583;BME280;46415;47.536;19.066;2023-01-30T08:16:34;100648.81;;;-0.60;100.00
60583;BME280;46415;47.536;19.066;2023-01-30T08:19:38;100625.06;;;-0.47;100.00
60583;BME280;46415;47.536;19.066;2023-01-30T08:22:41;100608.12;;;-0.39;100.00
60583;BME280;46415;47.536;19.066;2023-01-30T08:25:44;100591.19;;;-0.25;100.00
60583;BME280;46415;47.536;19.066;2023-01-30T08:28:47;100593.75;;;-0.14;100.00
60583;BME280;46415;47.536;19.066;2023-01-30T08:31:50;100586.13;;;-0.05;100.00
60583;BME280;46415;47.536;19.066;2023-01-30T08:34:52;100592.13;;;0.11;100.00
60583;BME280;46415;47.536;19.066;2023-01-30T08:37:55;100595.56;;;0.23;100.00
60583;BME280;46415;47.536;19.066;2023-01-30T08:40:58;100600.66;;;0.32;98.57
60583;BME280;46415;47.536;19.066;2023-01-30T08:44:02;100595.53;;;0.25;99.28
60583;BME280;46415;47.536;19.066;2023-01-30T08:47:05;100594.72;;;0.36;99.51
60583;BME280;46415;47.536;19.066;2023-01-30T08:50:08;100589.63;;;0.49;98.61
60583;BME280;46415;47.536;19.066;2023-01-30T08:53:11;100584.53;;;0.68;98.58
60583;BME280;46415;47.536;19.066;2023-01-30T08:56:14;100586.22;;;0.74;97.29
60583;BME280;46415;47.536;19.066;2023-01-30T08:59:17;100582.81;;;0.87;96.02
60583;BME280;46415;47.536;19.066;2023-01-30T09:02:20;100588.75;;;1.01;95.64
60583;BME280;46415;47.536;19.066;2023-01-30T09:05:23;100598.94;;;1.15;94.21
60583;BME280;46415;47.536;19.066;2023-01-30T09:08:26;100592.13;;;1.18;94.36
60583;BME280;46415;47.536;19.066;2023-01-30T09:11:29;100591.25;;;1.19;95.07
60583;BME280;46415;47.536;19.066;2023-01-30T09:14:32;100591.25;;;1.36;93.85
60583;BME280;46415;47.536;19.066;2023-01-30T09:17:35;100590.41;;;1.27;94.33
60583;BME280;46415;47.536;19.066;2023-01-30T09:20:40;100578.47;;;1.29;94.76
60583;BME280;46415;47.536;19.066;2023-01-30T09:23:43;100572.50;;;1.27;95.17
60583;BME280;46415;47.536;19.066;2023-01-30T09:26:46;100571.63;;;1.32;95.00
60583;BME280;46415;47.536;19.066;2023-01-30T09:29:50;100563.13;;;1.26;95.42
60583;BME280;46415;47.536;19.066;2023-01-30T09:32:52;100556.34;;;1.23;95.35
60583;BME280;46415;47.536;19.066;2023-01-30T09:35:55;100558.84;;;1.34;94.31
60583;BME280;46415;47.536;19.066;2023-01-30T09:38:58;100551.19;;;1.29;95.06
60583;BME280;46415;47.536;19.066;2023-01-30T09:42:08;100544.28;;;1.52;93.83
60583;BME280;46415;47.536;19.066;2023-01-30T09:54:59;100517.12;;;1.19;94.76
60583;BME280;46415;47.536;19.066;2023-01-30T09:58:04;100520.56;;;1.17;95.01
60583;BME280;46415;47.536;19.066;2023-01-30T10:01:16;100517.16;;;1.07;95.50
60583;BME280;46415;47.536;19.066;2023-01-30T10:04:38;100496.72;;;1.18;95.75
60583;BME280;46415;47.536;19.066;2023-01-30T10:11:25;100501.69;;;1.47;94.33
60583;BME280;46415;47.536;19.066;2023-01-30T10:27:48;100473.41;;;2.76;86.60
60583;BME280;46415;47.536;19.066;2023-01-30T10:30:59;100460.53;;;2.82;83.98
60583;BME280;46415;47.536;19.066;2023-01-30T10:34:08;100450.47;;;2.63;84.77
60583;BME280;46415;47.536;19.066;2023-01-30T10:40:38;100439.78;;;3.04;82.70
60583;BME280;46415;47.536;19.066;2023-01-30T10:43:56;100426.44;;;2.76;81.44
60583;BME280;46415;47.536;19.066;2023-01-30T10:47:30;100413.56;;;2.80;83.30
60583;BME280;46415;47.536;19.066;2023-01-30T10:50:58;100398.09;;;2.86;83.92
60583;BME280;46415;47.536;19.066;2023-01-30T10:54:27;100393.94;;;2.78;84.39
60583;BME280;46415;47.536;19.066;2023-01-30T10:57:57;100389.75;;;2.69;84.14
60583;BME280;46415;47.536;19.066;2023-01-30T11:01:13;100377.22;;;2.46;84.88
60583;BME280;46415;47.536;19.066;2023-01-30T11:04:34;100363.56;;;2.46;85.88
60583;BME280;46415;47.536;19.066;2023-01-30T11:07:39;100369.72;;;2.27;84.84
60583;BME280;46415;47.536;19.066;2023-01-30T11:10:44;100359.81;;;1.93;86.73
60583;BME280;46415;47.536;19.066;2023-01-30T11:13:46;100349.00;;;1.61;89.44
60583;BME280;46415;47.536;19.066;2023-01-30T11:16:53;100342.97;;;1.70;90.10
60583;BME280;46415;47.536;19.066;2023-01-30T11:20:02;100340.03;;;2.09;88.07
60583;BME280;46415;47.536;19.066;2023-01-30T11:23:20;100343.44;;;2.13;88.21
60583;BME280;46415;47.536;19.066;2023-01-30T11:26:34;100328.59;;;2.43;86.63
60583;BME280;46415;47.536;19.066;2023-01-30T11:29:49;100314.16;;;2.36;87.35
60583;BME280;46415;47.536;19.066;2023-01-30T11:36:29;100313.31;;;2.37;87.10
60583;BME280;46415;47.536;19.066;2023-01-30T11:39:32;100311.75;;;2.23;87.89
60583;BME280;46415;47.536;19.066;2023-01-30T11:42:42;100294.69;;;2.22;88.45
60583;BME280;46415;47.536;19.066;2023-01-30T11:45:47;100285.38;;;2.15;88.96
60583;BME280;46415;47.536;19.066;2023-01-30T11:48:54;100280.25;;;2.18;89.07
60583;BME280;46415;47.536;19.066;2023-01-30T11:52:19;100277.75;;;2.12;89.41
60583;BME280;46415;47.536;19.066;2023-01-30T11:55:25;100277.75;;;2.10;89.59
60583;BME280;46415;47.536;19.066;2023-01-30T11:58:32;100275.13;;;2.18;89.60
60583;BME280;46415;47.536;19.066;2023-01-30T12:01:37;100269.34;;;2.00;90.23
60583;BME280;46415;47.536;19.066;2023-01-30T12:04:47;100271.00;;;2.04;91.00
60583;BME280;46415;47.536;19.066;2023-01-30T12:08:13;100268.38;;;2.11;89.74
60583;BME280;46415;47.536;19.066;2023-01-30T12:11:42;100254.00;;;1.97;89.79
60583;BME280;46415;47.536;19.066;2023-01-30T12:14:47;100248.03;;;1.98;89.05
60583;BME280;46415;47.536;19.066;2023-01-30T12:28:01;100213.03;;;2.00;91.91
60583;BME280;46415;47.536;19.066;2023-01-30T12:31:23;100195.91;;;2.04;93.07
60583;BME280;46415;47.536;19.066;2023-01-30T12:34:27;100179.84;;;1.91;93.95
60583;BME280;46415;47.536;19.066;2023-01-30T12:47:58;100169.47;;;2.05;94.69
60583;BME280;46415;47.536;19.066;2023-01-30T12:51:20;100176.31;;;2.03;95.86
60583;BME280;46415;47.536;19.066;2023-01-30T12:57:46;100185.44;;;2.25;96.48
60583;BME280;46415;47.536;19.066;2023-01-30T13:14:37;100153.50;;;2.49;96.39
60583;BME280;46415;47.536;19.066;2023-01-30T13:18:03;100138.06;;;2.54;97.46
60583;BME280;46415;47.536;19.066;2023-01-30T13:21:13;100124.53;;;2.45;96.65
60583;BME280;46415;47.536;19.066;2023-01-30T13:24:39;100115.31;;;2.34;97.72
60583;BME280;46415;47.536;19.066;2023-01-30T13:27:51;100121.28;;;2.34;98.36
60583;BME280;46415;47.536;19.066;2023-01-30T13:30:55;100116.97;;;2.38;98.85
60583;BME280;46415;47.536;19.066;2023-01-30T13:34:05;100117.69;;;2.44;97.50
60583;BME280;46415;47.536;19.066;2023-01-30T13:37:16;100129.63;;;2.49;97.45
60583;BME280;46415;47.536;19.066;2023-01-30T13:40:39;100122.03;;;2.41;97.40
60583;BME280;46415;47.536;19.066;2023-01-30T13:43:48;100120.22;;;2.49;97.64
60583;BME280;46415;47.536;19.066;2023-01-30T13:46:53;100127.72;;;2.61;96.66
60583;BME280;46415;47.536;19.066;2023-01-30T13:56:28;100116.06;;;2.96;93.98
60583;BME280;46415;47.536;19.066;2023-01-30T14:00:17;100118.53;;;2.99;93.35
60583;BME280;46415;47.536;19.066;2023-01-30T14:03:26;100108.41;;;2.93;92.88
60583;BME280;46415;47.536;19.066;2023-01-30T14:06:37;100107.78;;;2.80;92.76
60583;BME280;46415;47.536;19.066;2023-01-30T14:09:45;100106.28;;;2.67;93.42
60583;BME280;46415;47.536;19.066;2023-01-30T14:12:52;100103.62;;;2.71;92.21
60583;BME280;46415;47.536;19.066;2023-01-30T14:16:01;100098.50;;;2.71;91.91
60583;BME280;46415;47.536;19.066;2023-01-30T14:19:34;100100.22;;;2.71;92.71
60583;BME280;46415;47.536;19.066;2023-01-30T14:22:46;100103.94;;;2.52;92.96
60583;BME280;46415;47.536;19.066;2023-01-30T14:25:52;100105.56;;;2.57;93.30
60583;BME280;46415;47.536;19.066;2023-01-30T14:28:58;100106.50;;;2.53;93.60
60583;BME280;46415;47.536;19.066;2023-01-30T14:32:01;100117.63;;;2.51;94.36
60583;BME280;46415;47.536;19.066;2023-01-30T14:38:19;100121.34;;;2.30;97.23
60583;BME280;46415;47.536;19.066;2023-01-30T14:48:37;100115.09;;;1.88;100.00
60583;BME280;46415;47.536;19.066;2023-01-30T14:51:47;100123.75;;;1.78;100.00
60583;BME280;46415;47.536;19.066;2023-01-30T14:54:50;100123.84;;;1.70;100.00
60583;BME280;46415;47.536;19.066;2023-01-30T14:57:56;100116.25;;;1.61;100.00
60583;BME280;46415;47.536;19.066;2023-01-30T15:01:00;100117.16;;;1.55;100.00
60583;BME280;46415;47.536;19.066;2023-01-30T15:04:03;100104.50;;;1.48;100.00
60583;BME280;46415;47.536;19.066;2023-01-30T15:07:32;100110.34;;;1.57;100.00
60583;BME280;46415;47.536;19.066;2023-01-30T15:10:46;100103.62;;;1.49;100.00
60583;BME280;46415;47.536;19.066;2023-01-30T15:17:21;100119.00;;;1.47;100.00
60583;BME280;46415;47.536;19.066;2023-01-30T15:24:19;100114.72;;;1.48;100.00
60583;BME280;46415;47.536;19.066;2023-01-30T15:31:10;100107.84;;;1.53;100.00
60583;BME280;46415;47.536;19.066;2023-01-30T15:34:20;100101.16;;;1.43;100.00
60583;BME280;46415;47.536;19.066;2023-01-30T15:37:45;100113.03;;;1.44;100.00
60583;BME280;46415;47.536;19.066;2023-01-30T15:40:48;100110.34;;;1.56;100.00
60583;BME280;46415;47.536;19.066;2023-01-30T15:50:48;100125.19;;;1.25;100.00
60583;BME280;46415;47.536;19.066;2023-01-30T15:53:54;100121.91;;;1.12;100.00
60583;BME280;46415;47.536;19.066;2023-01-30T15:56:58;100110.03;;;1.05;100.00
60583;BME280;46415;47.536;19.066;2023-01-30T16:00:04;100107.56;;;0.96;100.00
60583;BME280;46415;47.536;19.066;2023-01-30T16:03:18;100106.75;;;0.91;100.00
60583;BME280;46415;47.536;19.066;2023-01-30T16:06:30;100122.13;;;0.88;100.00
60583;BME280;46415;47.536;19.066;2023-01-30T16:09:36;100127.19;;;0.90;100.00
60583;BME280;46415;47.536;19.066;2023-01-30T16:12:39;100135.78;;;0.81;100.00
60583;BME280;46415;47.536;19.066;2023-01-30T16:18:57;100123.88;;;0.80;100.00
60583;BME280;46415;47.536;19.066;2023-01-30T16:22:04;100141.72;;;0.88;100.00
60583;BME280;46415;47.536;19.066;2023-01-30T16:25:17;100128.94;;;0.86;100.00
60583;BME280;46415;47.536;19.066;2023-01-30T16:28:22;100132.34;;;0.85;100.00
60583;BME280;46415;47.536;19.066;2023-01-30T16:31:33;100145.06;;;0.90;100.00
60583;BME280;46415;47.536;19.066;2023-01-30T16:34:39;100140.81;;;0.93;100.00
60583;BME280;46415;47.536;19.066;2023-01-30T16:37:42;100157.84;;;0.90;100.00
60583;BME280;46415;47.536;19.066;2023-01-30T16:40:45;100153.69;;;0.79;100.00
60583;BME280;46415;47.536;19.066;2023-01-30T16:47:20;100146.28;;;0.43;100.00
60583;BME280;46415;47.536;19.066;2023-01-30T16:50:24;100154.75;;;0.48;100.00
60583;BME280;46415;47.536;19.066;2023-01-30T16:53:28;100152.31;;;0.30;100.00
60583;BME280;46415;47.536;19.066;2023-01-30T16:56:33;100145.50;;;0.33;100.00
60583;BME280;46415;47.536;19.066;2023-01-30T16:59:37;100150.59;;;0.35;100.00
60583;BME280;46415;47.536;19.066;2023-01-30T17:02:53;100144.56;;;0.47;100.00
60583;BME280;46415;47.536;19.066;2023-01-30T17:05:57;100144.59;;;0.40;100.00
60583;BME280;46415;47.536;19.066;2023-01-30T17:09:02;100140.31;;;0.46;100.00
60583;BME280;46415;47.536;19.066;2023-01-30T17:12:33;100140.28;;;0.52;100.00
60583;BME280;46415;47.536;19.066;2023-01-30T17:15:37;100123.16;;;0.64;100.00
60583;BME280;46415;47.536;19.066;2023-01-30T17:18:40;100120.44;;;0.86;100.00
60583;BME280;46415;47.536;19.066;2023-01-30T17:21:48;100145.78;;;1.08;100.00
60583;BME280;46415;47.536;19.066;2023-01-30T17:24:56;100132.91;;;1.19;100.00
60583;BME280;46415;47.536;19.066;2023-01-30T17:28:01;100130.25;;;1.27;100.00
60583;BME280;46415;47.536;19.066;2023-01-30T17:31:04;100126.00;;;1.30;100.00
60583;BME280;46415;47.536;19.066;2023-01-30T17:34:07;100125.94;;;1.33;100.00
60583;BME280;46415;47.536;19.066;2023-01-30T17:37:15;100129.28;;;1.41;100.00
60583;BME280;46415;47.536;19.066;2023-01-30T17:40:23;100131.72;;;1.52;100.00
60583;BME280;46415;47.536;19.066;2023-01-30T17:43:28;100132.50;;;1.55;100.00
60583;BME280;46415;47.536;19.066;2023-01-30T17:46:43;100130.78;;;1.59;100.00
60583;BME280;46415;47.536;19.066;2023-01-30T17:49:46;100123.09;;;1.60;100.00
60583;BME280;46415;47.536;19.066;2023-01-30T17:52:50;100121.38;;;1.61;100.00
60583;BME280;46415;47.536;19.066;2023-01-30T17:55:52;100123.84;;;1.67;100.00
60583;BME280;46415;47.536;19.066;2023-01-30T17:58:56;100121.19;;;1.76;100.00
60583;BME280;46415;47.536;19.066;2023-01-30T18:01:59;100126.19;;;1.85;100.00
60583;BME280;46415;47.536;19.066;2023-01-30T18:05:02;100121.00;;;1.91;100.00
60583;BME280;46415;47.536;19.066;2023-01-30T18:08:05;100123.41;;;2.05;100.00
60583;BME280;46415;47.536;19.066;2023-01-30T18:11:09;100123.31;;;2.10;100.00
60583;BME280;46415;47.536;19.066;2023-01-30T18:14:13;100129.31;;;2.09;100.00
60583;BME280;46415;47.536;19.066;2023-01-30T18:17:16;100142.09;;;2.10;100.00
60583;BME280;46415;47.536;19.066;2023-01-30T18:20:19;100144.63;;;2.12;100.00